Time;durP1;ratioP1;P1;durP2;ratioP2;P2;SDS_P1;SDS_P2;PMS_P1;PMS_P2;Temp;Humidity;BMP_temperature;BMP_pressure;BME280_temperature;BME280_humidity;BME280_pressure;Samples;Min_cycle;Max_cycle;Signal;HPM_P1;HPM_P2
2022/06/10 00:01:13;;;;;;;11.98;9.70;;;23.50;57.80;;;;;;5032987;28;20428;-57
2022/06/10 00:03:39;;;;;;;12.65;10.02;;;23.50;58.00;;;;;;5029754;28;20033;-58
2022/06/10 00:06:07;;;;;;;12.52;9.50;;;23.50;58.20;;;;;;5031858;28;20044;-58
2022/06/10 00:08:36;;;;;;;12.80;10.25;;;23.40;58.20;;;;;;5030239;28;20036;-57
2022/06/10 00:11:04;;;;;;;13.77;9.70;;;23.40;58.40;;;;;;5024856;28;20052;-58
2022/06/10 00:13:33;;;;;;;12.73;10.15;;;23.40;58.50;;;;;;5028139;28;20061;-58
2022/06/10 00:16:00;;;;;;;12.77;10.43;;;23.40;58.80;;;;;;5032340;28;20080;-58
2022/06/10 00:18:29;;;;;;;15.27;11.10;;;23.30;58.90;;;;;;5029983;28;20060;-58
2022/06/10 00:20:55;;;;;;;14.15;10.13;;;23.30;59.10;;;;;;5027593;28;20030;-58
2022/06/10 00:23:21;;;;;;;12.75;10.68;;;23.30;59.30;;;;;;5032204;28;20105;-58
2022/06/10 00:25:46;;;;;;;15.30;10.95;;;23.30;59.60;;;;;;5031749;28;20072;-58
2022/06/10 00:28:13;;;;;;;13.00;10.30;;;23.30;59.80;;;;;;5025986;28;20120;-58
2022/06/10 00:30:39;;;;;;;12.30;10.48;;;23.30;60.00;;;;;;5028857;28;20021;-58
2022/06/10 00:33:06;;;;;;;12.38;10.32;;;23.30;60.20;;;;;;5033883;28;20021;-58
2022/06/10 00:35:32;;;;;;;14.20;10.38;;;23.20;60.40;;;;;;5035768;28;20492;-58
2022/06/10 00:37:58;;;;;;;13.48;10.68;;;23.20;60.50;;;;;;5036408;28;20049;-58
2022/06/10 00:40:28;;;;;;;12.18;9.95;;;23.20;60.70;;;;;;5035241;28;20025;-58
2022/06/10 00:42:56;;;;;;;13.13;10.43;;;23.20;60.90;;;;;;5030875;28;20557;-58
2022/06/10 00:46:00;;;;;;;12.60;11.02;;;23.10;61.00;;;;;;5036146;28;20076;-58
2022/06/10 00:48:36;;;;;;;13.68;10.60;;;23.10;61.20;;;;;;5006769;28;20584;-58
2022/06/10 00:51:10;;;;;;;13.95;11.07;;;23.10;61.30;;;;;;5030602;28;20037;-58
2022/06/10 00:53:36;;;;;;;13.10;10.35;;;23.10;61.60;;;;;;5034609;28;20061;-57
2022/06/10 00:56:09;;;;;;;11.50;9.63;;;23.10;61.90;;;;;;5031327;28;20068;-58
2022/06/10 00:58:51;;;;;;;10.73;9.27;;;23.10;62.10;;;;;;5031026;28;20076;-58
2022/06/10 01:01:19;;;;;;;11.88;10.52;;;23.10;62.30;;;;;;5036348;28;20035;-58
2022/06/10 01:03:44;;;;;;;14.20;9.90;;;23.10;62.60;;;;;;5035955;28;20037;-58
2022/06/10 01:06:11;;;;;;;13.25;10.57;;;23.10;62.80;;;;;;5036150;28;20030;-58
2022/06/10 01:08:38;;;;;;;11.82;10.10;;;23.10;63.10;;;;;;5034996;28;20030;-58
2022/06/10 01:11:22;;;;;;;14.43;11.25;;;23.00;63.30;;;;;;5029722;28;20075;-57
2022/06/10 01:14:07;;;;;;;15.00;11.13;;;23.00;63.60;;;;;;5023392;28;20033;-58
2022/06/10 01:16:35;;;;;;;16.30;11.60;;;23.00;63.80;;;;;;5026757;28;20060;-57
2022/06/10 01:19:13;;;;;;;13.93;10.98;;;23.00;63.90;;;;;;5035449;28;20100;-58
2022/06/10 01:21:51;;;;;;;11.27;9.32;;;23.00;64.10;;;;;;5033502;28;20053;-58
2022/06/10 01:24:25;;;;;;;14.63;11.93;;;23.00;64.30;;;;;;5034339;28;20026;-58
2022/06/10 01:30:16;;;;;;;15.10;12.73;;;23.00;65.60;;;;;;5029768;28;20036;-58
2022/06/10 01:32:56;;;;;;;12.95;10.85;;;23.00;66.10;;;;;;5035234;28;20025;-58
2022/06/10 01:35:38;;;;;;;16.92;14.13;;;23.00;66.30;;;;;;5032850;28;20157;-58
2022/06/10 01:38:27;;;;;;;14.82;12.82;;;23.00;66.80;;;;;;5040414;28;20515;-58
2022/06/10 01:41:21;;;;;;;18.13;14.00;;;23.00;66.90;;;;;;5031147;28;20029;-58
2022/06/10 01:43:53;;;;;;;14.82;12.52;;;23.00;66.90;;;;;;5033171;28;20033;-58
2022/06/10 01:46:25;;;;;;;13.88;12.40;;;22.90;66.90;;;;;;5034945;28;20034;-58
2022/06/10 01:49:08;;;;;;;20.52;14.75;;;22.90;67.10;;;;;;5035438;28;20021;-58
2022/06/10 01:51:45;;;;;;;18.13;14.57;;;22.90;67.60;;;;;;5035050;28;20064;-58
2022/06/10 01:54:35;;;;;;;17.98;14.18;;;22.90;67.60;;;;;;5030413;28;20020;-57
2022/06/10 01:57:06;;;;;;;17.13;14.73;;;22.90;67.60;;;;;;5044375;28;20034;-58
2022/06/10 01:59:43;;;;;;;17.00;14.18;;;22.90;67.70;;;;;;5035269;28;20029;-58
2022/06/10 02:02:19;;;;;;;16.80;14.05;;;22.80;67.60;;;;;;5034908;28;20482;-58
2022/06/10 02:05:07;;;;;;;17.65;14.45;;;22.80;67.70;;;;;;5027475;28;20025;-58
2022/06/10 02:07:37;;;;;;;18.02;13.13;;;22.80;67.50;;;;;;5027779;28;20033;-58
2022/06/10 02:10:20;;;;;;;16.87;14.30;;;22.80;67.30;;;;;;5034872;28;20037;-58
2022/06/10 02:12:53;;;;;;;14.55;12.57;;;22.80;67.40;;;;;;5031699;28;20305;-57
2022/06/10 02:15:29;;;;;;;17.42;14.70;;;22.80;67.20;;;;;;5034991;28;20029;-58
2022/06/10 02:18:24;;;;;;;20.00;15.32;;;22.80;67.40;;;;;;5034760;28;20509;-58
2022/06/10 02:20:58;;;;;;;20.65;15.98;;;22.80;67.40;;;;;;5034918;28;20040;-58
2022/06/10 02:23:28;;;;;;;17.25;15.05;;;22.80;67.30;;;;;;5024332;28;20022;-58
2022/06/10 02:25:58;;;;;;;17.67;15.30;;;22.80;67.40;;;;;;5030505;28;20037;-57
2022/06/10 02:28:32;;;;;;;18.25;14.80;;;22.80;67.50;;;;;;5034710;28;20385;-57
2022/06/10 02:31:12;;;;;;;14.75;12.65;;;22.80;67.50;;;;;;5036106;28;20009;-58
2022/06/10 02:33:39;;;;;;;14.17;12.67;;;22.80;67.30;;;;;;5031681;28;20018;-57
2022/06/10 02:36:10;;;;;;;17.13;13.35;;;22.80;67.30;;;;;;5034180;28;20030;-58
2022/06/10 02:38:47;;;;;;;17.63;14.43;;;22.80;67.20;;;;;;5032662;28;20029;-58
2022/06/10 02:41:34;;;;;;;19.63;15.10;;;22.80;67.30;;;;;;5034811;28;20057;-58
2022/06/10 02:44:02;;;;;;;16.55;14.52;;;22.90;67.10;;;;;;5031696;28;20029;-58
2022/06/10 02:46:38;;;;;;;15.55;13.90;;;22.90;67.00;;;;;;5032306;28;20025;-58
2022/06/10 02:49:11;;;;;;;16.70;13.98;;;22.90;67.00;;;;;;5031667;28;20017;-58
2022/06/10 02:51:38;;;;;;;14.35;12.38;;;22.90;66.80;;;;;;5031816;28;20063;-58
2022/06/10 02:54:17;;;;;;;17.80;14.65;;;22.90;66.50;;;;;;5028570;28;20025;-57
2022/06/10 02:56:43;;;;;;;16.55;14.32;;;23.00;66.40;;;;;;5033550;28;20476;-58
2022/06/10 03:02:04;;;;;;;18.58;14.95;;;23.00;66.00;;;;;;5031101;28;20440;-58
2022/06/10 03:04:48;;;;;;;17.38;14.98;;;23.00;65.90;;;;;;5032061;28;20516;-57
2022/06/10 03:07:29;;;;;;;17.75;14.85;;;23.00;65.70;;;;;;5033302;28;20025;-58
2022/06/10 03:10:13;;;;;;;18.10;15.05;;;23.10;65.70;;;;;;5030747;28;20030;-58
2022/06/10 03:13:07;;;;;;;15.63;13.82;;;23.10;65.70;;;;;;5028655;28;20554;-58
2022/06/10 03:15:42;;;;;;;18.48;15.25;;;23.10;65.60;;;;;;5033524;28;20056;-58
2022/06/10 03:18:33;;;;;;;17.08;14.35;;;23.10;65.60;;;;;;5033266;28;20432;-58
2022/06/10 03:21:15;;;;;;;17.75;14.73;;;23.10;65.60;;;;;;5027226;28;20021;-58
2022/06/10 03:23:47;;;;;;;17.40;15.07;;;23.10;65.70;;;;;;5028163;28;20056;-56
2022/06/10 03:26:50;;;;;;;16.90;14.38;;;23.10;65.70;;;;;;5031219;28;20021;-58
2022/06/10 03:29:29;;;;;;;17.70;14.85;;;23.20;65.80;;;;;;5031184;28;20108;-58
2022/06/10 03:32:00;;;;;;;17.15;14.48;;;23.20;66.50;;;;;;5031011;28;20061;-58
2022/06/10 03:34:49;;;;;;;20.10;15.57;;;23.40;67.10;;;;;;5039216;28;20028;-58
2022/06/10 03:37:17;;;;;;;15.13;12.55;;;23.80;67.40;;;;;;5031844;28;20045;-58
2022/06/10 03:39:50;;;;;;;17.30;15.00;;;24.10;67.10;;;;;;5033276;28;20021;-58
2022/06/10 03:42:17;;;;;;;20.27;14.77;;;24.60;66.50;;;;;;5020729;28;20021;-58
2022/06/10 03:44:46;;;;;;;20.25;14.98;;;25.10;65.50;;;;;;5031880;28;20443;-57
2022/06/10 03:47:19;;;;;;;15.80;13.48;;;25.80;64.50;;;;;;5032169;28;20083;-58
2022/06/10 03:49:55;;;;;;;15.55;12.95;;;26.50;63.60;;;;;;5033313;28;20446;-58
2022/06/10 03:52:24;;;;;;;16.75;13.27;;;27.20;62.70;;;;;;5031266;28;20033;-58
2022/06/10 03:54:50;;;;;;;13.87;12.33;;;28.00;61.70;;;;;;5025877;28;20430;-58
2022/06/10 03:57:17;;;;;;;14.45;12.15;;;28.80;60.80;;;;;;5032446;28;20070;-58
2022/06/10 03:59:44;;;;;;;15.50;11.98;;;29.60;60.00;;;;;;5031209;28;20037;-58
2022/06/10 04:02:10;;;;;;;15.18;12.52;;;30.30;58.70;;;;;;5032486;28;20026;-58
2022/06/10 04:04:36;;;;;;;16.63;13.48;;;31.00;57.30;;;;;;5033549;28;20030;-58
2022/06/10 04:07:02;;;;;;;14.60;12.05;;;31.60;56.00;;;;;;5037391;28;20017;-58
2022/06/10 04:09:28;;;;;;;15.63;13.15;;;32.00;55.20;;;;;;5032864;28;20021;-59
2022/06/10 04:11:54;;;;;;;15.10;12.25;;;32.40;54.30;;;;;;5025854;28;20100;-57
2022/06/10 04:14:19;;;;;;;16.50;13.43;;;32.70;53.30;;;;;;5030375;28;20060;-57
2022/06/10 04:16:45;;;;;;;17.15;13.57;;;33.00;52.60;;;;;;5027902;28;20385;-57
2022/06/10 04:19:12;;;;;;;17.55;13.45;;;33.20;51.90;;;;;;5033213;28;20173;-57
2022/06/10 04:21:38;;;;;;;16.40;13.30;;;33.30;51.10;;;;;;5029956;28;20029;-58
2022/06/10 04:24:04;;;;;;;17.98;14.75;;;33.40;50.60;;;;;;5032800;28;20036;-58
2022/06/10 04:26:30;;;;;;;16.15;13.98;;;33.30;50.10;;;;;;5033247;28;20022;-58
2022/06/10 04:28:56;;;;;;;16.58;13.20;;;33.10;49.90;;;;;;5031136;28;20542;-58
2022/06/10 04:31:21;;;;;;;16.95;13.93;;;33.00;49.80;;;;;;5039062;28;20060;-58
2022/06/10 04:33:48;;;;;;;15.68;13.65;;;32.90;50.00;;;;;;5030041;28;20512;-59
2022/06/10 04:36:16;;;;;;;15.70;13.07;;;32.90;49.40;;;;;;5041913;28;20028;-59
2022/06/10 04:38:42;;;;;;;16.95;12.77;;;32.70;49.50;;;;;;5035073;28;20069;-59
2022/06/10 04:41:09;;;;;;;14.30;12.18;;;32.60;50.00;;;;;;5021318;28;20111;-59
2022/06/10 04:43:35;;;;;;;14.60;11.90;;;32.60;50.40;;;;;;5026460;28;20037;-59
2022/06/10 04:46:02;;;;;;;15.73;12.55;;;32.70;50.10;;;;;;5028826;28;20053;-58
2022/06/10 04:48:28;;;;;;;16.88;12.60;;;32.70;49.50;;;;;;5030966;28;20464;-58
2022/06/10 04:50:53;;;;;;;14.30;11.63;;;32.60;49.40;;;;;;5028991;28;20036;-58
2022/06/10 04:53:19;;;;;;;11.55;9.65;;;32.60;49.90;;;;;;5031669;28;20481;-60
2022/06/10 04:55:45;;;;;;;14.32;11.20;;;32.90;50.20;;;;;;5031124;28;20447;-57
2022/06/10 04:58:12;;;;;;;16.20;12.38;;;33.50;50.20;;;;;;5028979;28;20033;-57
2022/06/10 05:00:41;;;;;;;13.93;11.82;;;34.00;49.30;;;;;;5030640;28;20057;-57
2022/06/10 05:03:07;;;;;;;13.70;11.30;;;34.10;48.50;;;;;;5027290;28;20021;-57
2022/06/10 05:05:34;;;;;;;13.25;10.82;;;34.20;48.40;;;;;;5028603;28;20060;-56
2022/06/10 05:08:00;;;;;;;12.13;10.57;;;34.40;48.60;;;;;;5028315;28;20108;-56
2022/06/10 05:10:27;;;;;;;14.07;11.07;;;34.70;48.10;;;;;;5031075;28;20101;-56
2022/06/10 05:12:52;;;;;;;15.35;12.80;;;34.80;47.90;;;;;;5032297;28;20068;-57
2022/06/10 05:15:20;;;;;;;13.45;11.13;;;35.00;47.10;;;;;;5032386;28;20026;-57
2022/06/10 05:17:47;;;;;;;15.32;11.88;;;34.70;46.40;;;;;;5031782;28;20068;-57
2022/06/10 05:20:17;;;;;;;16.98;13.05;;;34.40;46.00;;;;;;5030736;28;20079;-57
2022/06/10 05:22:43;;;;;;;15.23;11.43;;;34.00;45.90;;;;;;5027526;28;20021;-57
2022/06/10 05:25:10;;;;;;;14.50;11.75;;;33.60;46.20;;;;;;5041760;28;20029;-57
2022/06/10 05:27:35;;;;;;;13.25;11.68;;;33.00;46.60;;;;;;5026487;28;20064;-57
2022/06/10 05:30:01;;;;;;;18.42;13.30;;;32.30;47.40;;;;;;5030922;28;21068;-57
2022/06/10 05:32:27;;;;;;;14.30;12.73;;;31.60;48.10;;;;;;5035959;28;20422;-57
2022/06/10 05:34:53;;;;;;;14.48;11.85;;;31.00;48.90;;;;;;5031457;28;20033;-57
2022/06/10 05:37:22;;;;;;;13.32;11.73;;;30.60;49.70;;;;;;5030674;28;20120;-57
2022/06/10 05:39:48;;;;;;;15.55;11.95;;;30.20;50.40;;;;;;5033538;28;20543;-57
2022/06/10 05:42:15;;;;;;;14.93;12.40;;;29.80;50.70;;;;;;5030521;28;20029;-57
2022/06/10 05:44:45;;;;;;;14.13;11.35;;;29.30;50.80;;;;;;5027529;28;20073;-57
2022/06/10 05:47:15;;;;;;;14.52;11.77;;;29.00;51.30;;;;;;5027545;28;20063;-57
2022/06/10 05:49:44;;;;;;;14.20;11.18;;;28.70;52.10;;;;;;5022830;28;20026;-57
2022/06/10 05:52:11;;;;;;;15.43;12.32;;;28.40;52.10;;;;;;5021304;28;20087;-56
2022/06/10 05:54:43;;;;;;;14.85;11.88;;;28.20;52.30;;;;;;5021036;28;20037;-57
2022/06/10 05:57:09;;;;;;;14.90;11.50;;;28.00;52.70;;;;;;5025079;28;20080;-57
2022/06/10 05:59:35;;;;;;;12.10;10.10;;;27.80;53.00;;;;;;5023353;28;20021;-57
2022/06/10 06:02:02;;;;;;;14.75;11.40;;;27.60;53.30;;;;;;5014945;28;20060;-57
2022/06/10 06:04:28;;;;;;;13.63;11.35;;;27.60;53.70;;;;;;5014318;28;20037;-57
2022/06/10 06:06:55;;;;;;;15.32;12.60;;;27.40;53.90;;;;;;5020099;28;20286;-57
2022/06/10 06:09:21;;;;;;;13.55;11.13;;;27.40;54.00;;;;;;5004836;28;20038;-56
2022/06/10 06:11:48;;;;;;;12.82;10.85;;;27.30;54.10;;;;;;5009370;28;20053;-56
2022/06/10 06:14:15;;;;;;;12.75;11.30;;;27.20;54.40;;;;;;5011455;28;20041;-57
2022/06/10 06:16:41;;;;;;;12.82;9.38;;;27.10;54.60;;;;;;5015033;28;20021;-57
2022/06/10 06:19:06;;;;;;;12.43;10.13;;;27.10;54.80;;;;;;5014498;28;20092;-57
2022/06/10 06:21:32;;;;;;;11.07;9.27;;;27.00;55.30;;;;;;5015960;28;20090;-58
2022/06/10 06:23:58;;;;;;;12.00;9.90;;;27.00;54.70;;;;;;5013463;28;20405;-57
2022/06/10 06:26:25;;;;;;;11.30;9.80;;;27.00;55.00;;;;;;5023762;28;20045;-58
2022/06/10 06:28:50;;;;;;;12.02;9.77;;;27.00;55.00;;;;;;5019978;28;20750;-58
2022/06/10 06:31:16;;;;;;;11.20;8.70;;;27.00;55.00;;;;;;5017531;28;20071;-57
2022/06/10 06:33:42;;;;;;;11.30;8.93;;;26.90;54.80;;;;;;5011774;28;20092;-56
2022/06/10 06:36:16;;;;;;;12.00;9.15;;;27.00;55.00;;;;;;5022354;28;20029;-57
2022/06/10 06:38:41;;;;;;;11.70;8.98;;;27.00;55.30;;;;;;5014490;28;20026;-57
2022/06/10 06:41:09;;;;;;;11.35;9.05;;;26.90;55.30;;;;;;5017099;28;20060;-57
2022/06/10 06:43:35;;;;;;;10.10;8.45;;;26.90;55.30;;;;;;5019543;28;20069;-57
2022/06/10 06:46:01;;;;;;;9.18;7.82;;;26.90;55.30;;;;;;5011988;28;20597;-57
2022/06/10 06:48:27;;;;;;;11.05;7.50;;;26.80;55.10;;;;;;5012172;28;20044;-56
2022/06/10 06:50:52;;;;;;;9.23;7.68;;;26.80;55.00;;;;;;5015525;28;20048;-57
2022/06/10 06:53:18;;;;;;;9.63;7.75;;;26.70;55.10;;;;;;5026487;28;20458;-57
2022/06/10 06:55:44;;;;;;;11.35;7.40;;;26.50;55.10;;;;;;5015857;28;20037;-59
2022/06/10 06:58:14;;;;;;;9.70;7.70;;;26.50;55.30;;;;;;5009924;28;20087;-57
2022/06/10 07:00:40;;;;;;;8.27;6.35;;;26.40;55.10;;;;;;5013448;28;20140;-57
2022/06/10 07:03:06;;;;;;;7.95;6.78;;;26.30;55.30;;;;;;5011411;28;20198;-59
2022/06/10 07:05:32;;;;;;;9.82;6.85;;;26.30;55.30;;;;;;5014759;28;20378;-57
2022/06/10 07:07:58;;;;;;;8.88;6.53;;;26.30;55.60;;;;;;5002187;28;20041;-57
2022/06/10 07:10:25;;;;;;;7.28;6.20;;;26.40;55.60;;;;;;5004585;28;20725;-57
2022/06/10 07:12:51;;;;;;;8.50;6.85;;;26.30;55.50;;;;;;5013195;28;20060;-56
2022/06/10 07:15:18;;;;;;;7.90;5.88;;;26.40;55.80;;;;;;5007439;28;20030;-57
2022/06/10 07:17:44;;;;;;;7.68;6.05;;;26.30;55.60;;;;;;5003841;28;20125;-56
2022/06/10 07:20:18;;;;;;;6.82;5.30;;;26.30;55.00;;;;;;5004031;28;20657;-56
2022/06/10 07:22:43;;;;;;;8.00;5.75;;;26.30;54.80;;;;;;5002065;28;22399;-56
2022/06/10 07:25:10;;;;;;;9.02;5.75;;;26.30;54.80;;;;;;5011750;28;20030;-57
2022/06/10 07:27:36;;;;;;;7.07;5.40;;;26.30;55.10;;;;;;5006775;28;20512;-57
2022/06/10 07:30:04;;;;;;;7.72;5.88;;;26.30;55.20;;;;;;5014383;28;20134;-57
2022/06/10 07:32:30;;;;;;;6.03;5.40;;;26.30;55.40;;;;;;5012207;28;20133;-57
2022/06/10 07:34:56;;;;;;;6.85;5.43;;;26.30;55.40;;;;;;5002079;28;21261;-56
2022/06/10 07:37:23;;;;;;;5.32;4.63;;;26.30;55.20;;;;;;5006598;28;20044;-57
2022/06/10 07:39:49;;;;;;;5.93;4.90;;;26.30;55.50;;;;;;5015263;28;20408;-57
2022/06/10 07:42:14;;;;;;;6.68;5.53;;;26.30;56.20;;;;;;5015053;28;20048;-57
2022/06/10 07:44:40;;;;;;;7.03;5.32;;;26.30;55.30;;;;;;5010329;28;20132;-58
2022/06/10 07:47:11;;;;;;;6.88;5.32;;;26.30;54.80;;;;;;5007541;28;20037;-57
2022/06/10 07:49:38;;;;;;;6.30;5.07;;;26.30;54.70;;;;;;5008425;28;20033;-57
2022/06/10 07:52:05;;;;;;;5.88;4.78;;;26.20;54.60;;;;;;4997550;28;20040;-56
2022/06/10 07:54:31;;;;;;;6.03;4.57;;;26.20;54.80;;;;;;5003233;28;20037;-57
2022/06/10 07:56:57;;;;;;;7.43;5.03;;;26.20;54.80;;;;;;4998642;28;20026;-57
2022/06/10 07:59:23;;;;;;;7.45;4.85;;;26.20;54.90;;;;;;5012502;28;20029;-57
2022/06/10 08:01:48;;;;;;;5.05;4.05;;;26.30;54.70;;;;;;5004196;28;20551;-56
2022/06/10 08:04:14;;;;;;;6.10;4.30;;;26.30;54.20;;;;;;5003925;28;20404;-58
2022/06/10 08:06:43;;;;;;;5.45;4.10;;;26.30;54.00;;;;;;5003970;28;20904;-57
2022/06/10 08:09:10;;;;;;;6.05;4.10;;;26.30;53.50;;;;;;5003687;28;20594;-58
2022/06/10 08:11:36;;;;;;;5.70;4.20;;;26.30;53.20;;;;;;5002179;28;20065;-57
2022/06/10 08:14:03;;;;;;;6.78;4.13;;;26.30;53.30;;;;;;5005336;28;20087;-55
2022/06/10 08:16:30;;;;;;;5.43;4.22;;;26.30;53.70;;;;;;5008707;28;20497;-56
2022/06/10 08:18:55;;;;;;;4.95;3.90;;;26.30;53.30;;;;;;5006281;28;20493;-58
2022/06/10 08:22:32;;;;;;;4.60;3.97;;;26.30;53.30;;;;;;4998535;28;20043;-57
2022/06/10 08:24:17;;;;;;;5.25;3.50;;;26.30;53.40;;;;;;5003645;28;20065;-57
2022/06/10 08:26:43;;;;;;;7.07;4.30;;;26.30;53.30;;;;;;4994360;28;20551;-57
2022/06/10 08:29:10;;;;;;;5.85;4.18;;;26.30;53.50;;;;;;5002268;28;20029;-58
2022/06/10 08:31:36;;;;;;;6.00;3.78;;;26.30;53.60;;;;;;5003368;28;20034;-58
2022/06/10 08:34:03;;;;;;;4.10;3.28;;;26.30;53.30;;;;;;5012950;28;20392;-58
2022/06/10 08:36:30;;;;;;;4.65;3.20;;;26.30;52.20;;;;;;4998204;28;20048;-58
2022/06/10 08:38:56;;;;;;;5.18;3.60;;;26.30;52.20;;;;;;5000859;28;20030;-57
2022/06/10 08:41:35;;;;;;;3.08;2.78;;;26.30;52.20;;;;;;5000854;28;20033;-58
2022/06/10 08:44:26;;;;;;;4.32;3.00;;;26.30;52.40;;;;;;4999865;28;20692;-58
2022/06/10 08:47:29;;;;;;;3.95;2.92;;;26.30;52.00;;;;;;5007461;28;20044;-57
2022/06/10 08:50:19;;;;;;;4.35;3.08;;;26.40;52.00;;;;;;5001436;28;20033;-59
2022/06/10 08:53:09;;;;;;;3.22;2.88;;;26.30;52.20;;;;;;4996600;28;20030;-54
2022/06/10 08:56:03;;;;;;;5.22;3.53;;;26.30;52.20;;;;;;5010514;28;20033;-57
2022/06/10 08:58:37;;;;;;;4.00;3.25;;;26.30;52.10;;;;;;4996572;28;20088;-56
2022/06/10 09:01:12;;;;;;;4.13;3.25;;;26.30;52.00;;;;;;4997727;28;20508;-57
2022/06/10 09:03:44;;;;;;;3.17;2.80;;;26.30;52.70;;;;;;5004058;28;20033;-56
2022/06/10 09:06:14;;;;;;;4.15;2.95;;;26.30;52.00;;;;;;4999873;28;20112;-55
2022/06/10 09:08:47;;;;;;;3.28;2.63;;;26.30;51.40;;;;;;5005904;28;20125;-57
2022/06/10 09:11:43;;;;;;;3.40;2.78;;;26.30;51.10;;;;;;5008797;28;20489;-57
2022/06/10 09:14:17;;;;;;;3.33;2.80;;;26.40;50.60;;;;;;5007915;28;20095;-57
2022/06/10 09:17:22;;;;;;;2.92;2.35;;;26.30;50.50;;;;;;5018451;28;20076;-58
2022/06/10 09:19:53;;;;;;;2.88;2.25;;;26.30;49.90;;;;;;4965615;28;20039;-57
2022/06/10 09:22:38;;;;;;;3.70;2.40;;;26.40;49.50;;;;;;4997513;28;20103;-57
2022/06/10 09:25:30;;;;;;;2.75;2.30;;;26.40;47.50;;;;;;5005511;28;20790;-57
2022/06/10 09:27:58;;;;;;;3.40;2.50;;;26.40;47.30;;;;;;5009711;28;20044;-58
2022/06/10 09:30:56;;;;;;;3.25;2.20;;;26.50;47.90;;;;;;5010949;28;20033;-58
2022/06/10 09:33:57;;;;;;;2.55;2.30;;;26.50;45.80;;;;;;5000267;28;20501;-56
2022/06/10 09:36:52;;;;;;;2.60;1.90;;;26.50;47.50;;;;;;5016278;28;20059;-57
2022/06/10 09:42:08;;;;;;;2.53;2.30;;;26.60;47.10;;;;;;5007667;28;20048;-56
2022/06/10 09:45:05;;;;;;;2.58;2.05;;;26.60;47.10;;;;;;5002536;28;20057;-57
2022/06/10 09:47:31;;;;;;;3.15;2.00;;;26.60;46.00;;;;;;5000027;28;20034;-58
2022/06/10 09:50:13;;;;;;;2.58;2.10;;;26.60;46.50;;;;;;5007176;28;20105;-58
2022/06/10 09:53:12;;;;;;;2.10;1.90;;;26.60;46.10;;;;;;5010487;28;20038;-57
2022/06/10 09:56:19;;;;;;;2.13;1.80;;;26.60;44.70;;;;;;5006754;28;20509;-57
2022/06/10 09:59:22;;;;;;;2.00;1.80;;;26.60;43.60;;;;;;5010682;28;20021;-58
2022/06/10 10:01:57;;;;;;;1.90;1.80;;;26.60;43.00;;;;;;5003697;28;20112;-56
2022/06/10 10:05:05;;;;;;;1.90;1.80;;;26.70;45.00;;;;;;5004754;28;20118;-57
2022/06/10 10:08:01;;;;;;;1.88;1.65;;;26.70;44.30;;;;;;5006258;28;20038;-57
2022/06/10 10:10:30;;;;;;;1.38;1.27;;;26.70;44.20;;;;;;5007744;28;20592;-58
2022/06/10 10:13:21;;;;;;;2.20;1.65;;;26.70;44.90;;;;;;5003503;28;20052;-59
2022/06/10 10:16:25;;;;;;;2.22;1.80;;;26.70;43.60;;;;;;5002839;28;20037;-59
2022/06/10 10:19:07;;;;;;;2.75;2.20;;;26.70;44.00;;;;;;5007418;28;20018;-60
2022/06/10 10:21:58;;;;;;;4.53;2.38;;;26.60;44.70;;;;;;5007952;28;20037;-59
2022/06/10 10:24:25;;;;;;;3.33;2.30;;;26.60;44.70;;;;;;4998385;28;20026;-60
2022/06/10 10:26:55;;;;;;;2.55;2.30;;;26.60;44.90;;;;;;5009770;28;20433;-58
2022/06/10 10:29:27;;;;;;;3.08;2.53;;;26.60;44.70;;;;;;5009913;28;20037;-58
2022/06/10 10:32:02;;;;;;;5.43;3.38;;;26.60;44.90;;;;;;5014137;28;20069;-59
2022/06/10 10:34:38;;;;;;;3.70;2.63;;;26.60;45.00;;;;;;5013075;28;20049;-59
2022/06/10 10:37:20;;;;;;;2.80;2.40;;;26.60;44.90;;;;;;5012279;28;20036;-58
2022/06/10 10:39:59;;;;;;;3.58;2.53;;;26.60;45.10;;;;;;5005215;28;20441;-59
2022/06/10 10:42:32;;;;;;;3.85;2.50;;;26.60;45.00;;;;;;5015896;28;20082;-58
2022/06/10 10:45:10;;;;;;;2.50;2.13;;;26.60;44.90;;;;;;5012724;28;20132;-58
2022/06/10 10:47:37;;;;;;;3.40;2.55;;;26.60;45.00;;;;;;5009783;28;20044;-59
2022/06/10 10:50:06;;;;;;;3.17;2.28;;;26.60;45.00;;;;;;5013414;28;20037;-59
2022/06/10 10:52:34;;;;;;;2.97;2.20;;;26.60;45.00;;;;;;5009270;28;20094;-59
2022/06/10 10:55:23;;;;;;;2.08;1.88;;;26.60;45.00;;;;;;5007861;28;20493;-60
2022/06/10 10:58:18;;;;;;;3.75;2.05;;;26.60;44.60;;;;;;5002422;28;20038;-59
2022/06/10 11:00:46;;;;;;;5.63;2.60;;;26.60;44.90;;;;;;5009522;28;20536;-58
2022/06/10 11:03:26;;;;;;;2.83;2.20;;;26.60;45.00;;;;;;5006166;28;20627;-58
2022/06/10 11:05:52;;;;;;;2.28;2.05;;;26.50;44.90;;;;;;5011214;28;20045;-57
2022/06/10 11:08:30;;;;;;;2.25;2.05;;;26.50;44.90;;;;;;4999860;28;20145;-57
2022/06/10 11:11:14;;;;;;;3.20;2.30;;;26.60;44.90;;;;;;5007500;28;20033;-57
2022/06/10 11:13:49;;;;;;;3.95;2.42;;;26.60;44.70;;;;;;5009866;28;20496;-57
2022/06/10 11:16:23;;;;;;;3.35;2.40;;;26.60;44.90;;;;;;5010540;28;20017;-59
2022/06/10 11:18:52;;;;;;;2.53;2.17;;;26.60;44.50;;;;;;5007318;28;20053;-56
2022/06/10 11:21:23;;;;;;;2.53;2.00;;;26.60;44.20;;;;;;5006669;28;20035;-57
2022/06/10 11:23:51;;;;;;;2.65;1.90;;;26.60;43.90;;;;;;5005804;28;20091;-56
2022/06/10 11:26:18;;;;;;;2.67;2.20;;;26.60;43.80;;;;;;5012203;28;20034;-57
2022/06/10 11:28:45;;;;;;;2.33;2.10;;;26.70;44.10;;;;;;5007719;28;20421;-56
2022/06/10 11:31:30;;;;;;;1.92;1.73;;;26.70;44.30;;;;;;5007724;28;20029;-56
2022/06/10 11:33:59;;;;;;;2.55;1.83;;;26.70;44.00;;;;;;5005883;28;20033;-56
2022/06/10 11:36:32;;;;;;;2.15;1.92;;;26.70;44.50;;;;;;5010826;28;20080;-59
2022/06/10 11:39:23;;;;;;;2.22;1.90;;;26.70;44.20;;;;;;4998575;28;20018;-57
2022/06/10 11:42:14;;;;;;;2.55;1.90;;;26.70;44.20;;;;;;5002431;28;20490;-56
2022/06/10 11:44:52;;;;;;;2.13;1.92;;;26.70;44.30;;;;;;5009530;28;20469;-57
2022/06/10 11:47:59;;;;;;;2.35;1.52;;;26.70;44.70;;;;;;5007173;28;20029;-57
2022/06/10 11:50:31;;;;;;;1.88;1.77;;;26.70;44.70;;;;;;5008025;28;20692;-58
2022/06/10 11:53:12;;;;;;;2.50;2.30;;;26.70;44.70;;;;;;5008717;28;20025;-57
2022/06/10 11:55:42;;;;;;;2.72;2.10;;;26.70;44.10;;;;;;4998860;28;20507;-58
2022/06/10 12:01:09;;;;;;;2.10;1.90;;;26.70;44.10;;;;;;5003258;28;20067;-58
2022/06/10 12:04:15;;;;;;;2.10;1.90;;;26.70;43.90;;;;;;5001755;28;20037;-58
2022/06/10 12:07:04;;;;;;;1.83;1.73;;;26.70;43.90;;;;;;5018728;28;20103;-58
2022/06/10 12:09:42;;;;;;;3.92;2.00;;;26.80;43.50;;;;;;5002310;28;20498;-58
2022/06/10 12:12:24;;;;;;;1.48;1.38;;;26.80;44.00;;;;;;5004384;28;20037;-57
2022/06/10 12:14:55;;;;;;;2.10;1.90;;;26.90;43.60;;;;;;5008703;28;20084;-59
2022/06/10 12:17:29;;;;;;;1.60;1.50;;;26.90;43.70;;;;;;5001777;28;20025;-58
2022/06/10 12:20:17;;;;;;;2.45;1.92;;;26.90;43.30;;;;;;5007750;28;20079;-57
2022/06/10 12:22:43;;;;;;;2.08;1.67;;;26.90;43.00;;;;;;5007157;28;20114;-57
2022/06/10 12:25:21;;;;;;;2.30;1.70;;;27.00;43.20;;;;;;5006636;28;20033;-58
2022/06/10 12:28:02;;;;;;;1.70;1.60;;;27.00;43.00;;;;;;5001406;28;20112;-59
2022/06/10 12:30:46;;;;;;;2.40;1.98;;;27.00;42.70;;;;;;4999886;28;20195;-59
2022/06/10 12:33:31;;;;;;;2.10;1.90;;;27.00;42.50;;;;;;5002738;28;20044;-57
2022/06/10 12:35:57;;;;;;;2.00;1.70;;;27.00;42.10;;;;;;5003149;28;20040;-57
2022/06/10 12:38:35;;;;;;;3.33;1.98;;;27.10;42.40;;;;;;5002786;28;21454;-57
2022/06/10 12:41:18;;;;;;;1.70;1.60;;;27.10;41.80;;;;;;5007545;28;20021;-57
2022/06/10 12:43:49;;;;;;;2.08;1.90;;;27.10;42.10;;;;;;5010724;28;20045;-58
2022/06/10 12:46:36;;;;;;;2.20;2.00;;;27.10;42.40;;;;;;5011760;28;20590;-57
2022/06/10 12:49:17;;;;;;;1.70;1.60;;;27.10;42.40;;;;;;5012911;28;20669;-58
2022/06/10 12:51:52;;;;;;;4.30;2.10;;;27.10;42.30;;;;;;5005742;28;20053;-56
2022/06/10 12:54:33;;;;;;;1.85;1.75;;;27.10;42.20;;;;;;5000913;28;20482;-57
2022/06/10 12:57:35;;;;;;;3.22;1.88;;;27.10;42.10;;;;;;5006955;28;20027;-57
2022/06/10 13:00:22;;;;;;;1.90;1.73;;;27.20;42.20;;;;;;5000595;28;20409;-55
2022/06/10 13:02:54;;;;;;;2.30;2.00;;;27.20;41.90;;;;;;5001558;28;20080;-57
2022/06/10 13:05:31;;;;;;;2.72;1.90;;;27.20;42.20;;;;;;5008268;28;20124;-57
2022/06/10 13:07:58;;;;;;;2.20;2.00;;;27.20;42.20;;;;;;5008317;28;20041;-58
2022/06/10 13:10:33;;;;;;;2.45;1.92;;;27.20;42.30;;;;;;5003155;28;20029;-58
2022/06/10 13:13:09;;;;;;;3.05;2.30;;;27.20;42.40;;;;;;5005399;28;20425;-57
2022/06/10 13:15:36;;;;;;;2.58;2.28;;;27.20;42.60;;;;;;5011596;28;20042;-56
2022/06/10 13:18:29;;;;;;;2.40;2.10;;;27.20;42.70;;;;;;5013340;28;20481;-57
2022/06/10 13:20:55;;;;;;;1.65;1.55;;;27.20;42.60;;;;;;5008234;28;20031;-56
2022/06/10 13:23:25;;;;;;;4.30;2.13;;;27.20;42.80;;;;;;5006434;28;20038;-57